Time;durP1;ratioP1;P1;durP2;ratioP2;P2;SDS_P1;SDS_P2;PMS_P1;PMS_P2;Temp;Humidity;BMP_temperature;BMP_pressure;BME280_temperature;BME280_humidity;BME280_pressure;Samples;Min_cycle;Max_cycle;Signal;HPM_P1;HPM_P2
2023/12/23 00:02:08;;;;;;;19.52;3.88;;;9.20;99.90;;;;;;5112735;28;20028;-72
2023/12/23 00:04:34;;;;;;;19.58;3.78;;;9.20;99.90;;;;;;5114214;28;20034;-73
2023/12/23 00:06:59;;;;;;;21.30;4.13;;;9.20;99.90;;;;;;5113119;28;20062;-73
2023/12/23 00:09:25;;;;;;;16.98;3.72;;;9.20;99.90;;;;;;5112373;28;20034;-72
2023/12/23 00:11:50;;;;;;;17.17;3.67;;;9.20;99.90;;;;;;5113358;28;20020;-73
2023/12/23 00:14:16;;;;;;;21.02;4.03;;;9.30;99.90;;;;;;5107495;28;20028;-72
2023/12/23 00:16:41;;;;;;;22.52;4.20;;;9.20;99.90;;;;;;5114183;28;20026;-73
2023/12/23 00:19:09;;;;;;;21.33;3.70;;;9.20;99.90;;;;;;5113135;28;20034;-72
2023/12/23 00:21:34;;;;;;;25.30;4.00;;;9.20;99.90;;;;;;5114374;28;20015;-73
2023/12/23 00:24:00;;;;;;;20.98;4.00;;;9.30;99.90;;;;;;5111495;28;20039;-72
2023/12/23 00:26:25;;;;;;;26.20;4.32;;;9.30;99.90;;;;;;5108565;28;20073;-72
2023/12/23 00:28:52;;;;;;;21.50;4.00;;;9.30;99.90;;;;;;5090749;28;20032;-72
2023/12/23 00:31:17;;;;;;;24.45;4.45;;;9.30;99.90;;;;;;5112794;28;20255;-72
2023/12/23 00:33:44;;;;;;;25.45;4.25;;;9.30;99.90;;;;;;5113129;28;20503;-73
2023/12/23 00:36:10;;;;;;;22.70;5.13;;;9.30;99.90;;;;;;5114139;28;20027;-72
2023/12/23 00:38:36;;;;;;;24.40;4.88;;;9.40;99.90;;;;;;5114009;28;20050;-73
2023/12/23 00:41:02;;;;;;;23.63;4.63;;;9.40;99.90;;;;;;5108787;28;20449;-72
2023/12/23 00:43:27;;;;;;;26.80;5.55;;;9.40;99.90;;;;;;5114303;28;20020;-72
2023/12/23 00:45:55;;;;;;;27.95;4.65;;;9.40;99.90;;;;;;5113161;28;20035;-73
2023/12/23 00:48:20;;;;;;;19.02;4.47;;;9.40;99.90;;;;;;5110538;28;20027;-72
2023/12/23 00:50:46;;;;;;;21.60;3.92;;;9.40;99.90;;;;;;5110521;28;20036;-73
2023/12/23 00:53:11;;;;;;;24.48;4.35;;;9.40;99.90;;;;;;5109886;28;20024;-72
2023/12/23 00:55:38;;;;;;;22.42;4.63;;;9.40;99.90;;;;;;5113617;28;20024;-73
2023/12/23 00:58:03;;;;;;;22.77;4.30;;;9.40;99.90;;;;;;5113372;28;20114;-73
2023/12/23 01:00:29;;;;;;;21.05;4.88;;;9.40;99.90;;;;;;5110691;28;20114;-72
2023/12/23 01:02:54;;;;;;;24.70;4.65;;;9.40;99.90;;;;;;5113304;28;20055;-72
2023/12/23 01:05:20;;;;;;;25.45;5.45;;;9.30;99.90;;;;;;5113300;28;20054;-71
2023/12/23 01:07:46;;;;;;;22.75;4.47;;;9.30;99.90;;;;;;5111072;28;20490;-72
2023/12/23 01:10:11;;;;;;;23.48;4.30;;;9.20;99.90;;;;;;5110749;28;20042;-72
2023/12/23 01:12:37;;;;;;;21.77;4.60;;;9.20;99.90;;;;;;5107368;28;20024;-71
2023/12/23 01:15:03;;;;;;;26.40;4.70;;;9.20;99.90;;;;;;5113128;28;20062;-71
2023/12/23 01:17:28;;;;;;;21.70;4.80;;;9.10;99.90;;;;;;5113182;28;20115;-71
2023/12/23 01:19:54;;;;;;;21.35;4.20;;;9.10;99.90;;;;;;5111021;28;20487;-72
2023/12/23 01:22:19;;;;;;;24.65;5.13;;;9.10;99.90;;;;;;5106552;28;20034;-72
2023/12/23 01:24:45;;;;;;;23.80;4.75;;;9.10;99.90;;;;;;5112904;28;20052;-72
2023/12/23 01:27:11;;;;;;;24.20;5.18;;;9.10;99.90;;;;;;5112660;28;20425;-72
2023/12/23 01:29:36;;;;;;;22.80;4.82;;;9.00;99.90;;;;;;5110992;28;20473;-72
2023/12/23 01:32:02;;;;;;;22.52;5.20;;;9.00;99.90;;;;;;5112571;28;20051;-72
2023/12/23 01:34:27;;;;;;;19.63;4.90;;;9.00;99.90;;;;;;5112867;28;20019;-71
2023/12/23 01:36:53;;;;;;;25.52;5.47;;;9.10;99.90;;;;;;5112491;28;20061;-72
2023/12/23 01:39:18;;;;;;;26.33;5.43;;;9.10;99.90;;;;;;5108244;28;20020;-72
2023/12/23 01:41:44;;;;;;;28.27;5.40;;;9.10;99.90;;;;;;5112575;28;20023;-72
2023/12/23 01:44:09;;;;;;;27.65;6.05;;;9.10;99.90;;;;;;5111006;28;20061;-72
2023/12/23 01:46:35;;;;;;;20.55;4.53;;;9.10;99.90;;;;;;5112804;28;20068;-72
2023/12/23 01:49:01;;;;;;;20.80;4.80;;;9.10;99.90;;;;;;5109736;28;20043;-72
2023/12/23 01:51:28;;;;;;;17.85;4.22;;;9.20;99.90;;;;;;5111013;28;20106;-71
2023/12/23 01:54:00;;;;;;;19.10;4.13;;;9.20;99.90;;;;;;5109817;28;20030;-71
2023/12/23 01:56:25;;;;;;;20.50;4.45;;;9.10;99.90;;;;;;5112528;28;20088;-71
2023/12/23 01:58:51;;;;;;;17.73;4.30;;;9.20;99.90;;;;;;5111722;28;20480;-71
2023/12/23 02:01:17;;;;;;;21.05;4.70;;;9.20;99.90;;;;;;5107489;28;20028;-71
2023/12/23 02:03:43;;;;;;;19.35;5.13;;;9.20;99.90;;;;;;5106469;28;20110;-71
2023/12/23 02:06:09;;;;;;;18.67;4.82;;;9.20;99.90;;;;;;5110100;28;20472;-71
2023/12/23 02:08:35;;;;;;;28.38;6.25;;;9.20;99.90;;;;;;5112219;28;20016;-71
2023/12/23 02:11:05;;;;;;;23.35;6.53;;;9.30;99.90;;;;;;5109606;28;20116;-71
2023/12/23 02:13:40;;;;;;;25.88;6.30;;;9.30;99.90;;;;;;5112152;28;20123;-71
2023/12/23 02:16:06;;;;;;;26.13;6.32;;;9.30;99.90;;;;;;5111381;28;20098;-71
2023/12/23 02:18:32;;;;;;;29.88;7.15;;;9.40;99.90;;;;;;5111012;28;20034;-71
2023/12/23 02:20:57;;;;;;;27.83;6.03;;;9.50;99.90;;;;;;5109342;28;20024;-70
2023/12/23 02:23:23;;;;;;;27.90;6.13;;;9.50;99.90;;;;;;5110408;28;20088;-70
2023/12/23 02:25:56;;;;;;;29.83;6.38;;;9.60;99.90;;;;;;5112055;28;20069;-70
2023/12/23 02:28:23;;;;;;;37.00;6.68;;;9.60;99.90;;;;;;5110416;28;20090;-70
2023/12/23 02:30:50;;;;;;;31.60;6.63;;;9.60;99.90;;;;;;5111896;28;20059;-70
2023/12/23 02:33:17;;;;;;;32.63;6.75;;;9.70;99.90;;;;;;5110503;28;20032;-70
2023/12/23 02:35:42;;;;;;;32.60;6.47;;;9.70;99.90;;;;;;5112035;28;20449;-70
2023/12/23 02:38:09;;;;;;;24.00;5.53;;;9.70;99.90;;;;;;5108866;28;20043;-71
2023/12/23 02:40:35;;;;;;;27.58;5.57;;;9.80;99.90;;;;;;5110219;28;20036;-71
2023/12/23 02:43:01;;;;;;;24.30;5.57;;;9.80;99.90;;;;;;5111866;28;20035;-71
2023/12/23 02:45:27;;;;;;;30.88;6.28;;;9.80;99.90;;;;;;5112037;28;20027;-71
2023/12/23 02:47:53;;;;;;;31.75;5.75;;;9.80;99.90;;;;;;5109533;28;20503;-71
2023/12/23 02:50:19;;;;;;;25.10;5.75;;;9.80;99.90;;;;;;5111428;28;20122;-71
2023/12/23 02:52:44;;;;;;;24.92;5.75;;;9.80;99.90;;;;;;5111862;28;20020;-71
2023/12/23 02:55:10;;;;;;;28.70;6.13;;;9.90;99.90;;;;;;5110402;28;20375;-72
2023/12/23 02:57:35;;;;;;;28.55;6.43;;;9.90;99.90;;;;;;5107178;28;20390;-71
2023/12/23 03:00:02;;;;;;;24.98;5.30;;;9.90;99.90;;;;;;5111893;28;20059;-71
2023/12/23 03:02:27;;;;;;;26.58;4.90;;;10.00;99.90;;;;;;5109827;28;20500;-71
2023/12/23 03:04:53;;;;;;;23.58;4.43;;;10.00;99.90;;;;;;5115198;28;20024;-71
2023/12/23 03:07:18;;;;;;;26.48;4.95;;;10.00;99.90;;;;;;5114281;28;20031;-71
2023/12/23 03:09:44;;;;;;;25.35;5.43;;;10.10;99.90;;;;;;5110709;28;20092;-70
2023/12/23 03:12:09;;;;;;;24.67;5.45;;;10.10;99.90;;;;;;5115336;28;20084;-70
2023/12/23 03:14:35;;;;;;;31.55;5.40;;;10.10;99.90;;;;;;5115717;28;20418;-71
2023/12/23 03:17:00;;;;;;;27.02;5.90;;;10.10;99.90;;;;;;5111996;28;20044;-70
2023/12/23 03:19:26;;;;;;;24.50;5.00;;;10.20;99.90;;;;;;5115247;28;20024;-71
2023/12/23 03:21:52;;;;;;;23.55;5.13;;;10.20;99.90;;;;;;5097363;28;20034;-71
2023/12/23 03:24:17;;;;;;;22.45;5.07;;;10.20;99.90;;;;;;5114947;28;20480;-71
2023/12/23 03:26:43;;;;;;;23.30;5.25;;;10.30;99.90;;;;;;5108376;28;20036;-71
2023/12/23 03:29:08;;;;;;;28.58;5.68;;;10.30;99.90;;;;;;5115225;28;20027;-71
2023/12/23 03:31:34;;;;;;;21.75;4.72;;;10.40;99.90;;;;;;5113872;28;20019;-71
2023/12/23 03:34:01;;;;;;;27.50;5.80;;;10.40;99.90;;;;;;5115181;28;20068;-72
2023/12/23 03:36:27;;;;;;;24.85;5.68;;;10.30;99.90;;;;;;5111671;28;20028;-72
2023/12/23 03:38:53;;;;;;;22.75;4.57;;;10.40;99.90;;;;;;5111032;28;20035;-72
2023/12/23 03:41:18;;;;;;;25.10;5.10;;;10.40;99.90;;;;;;5110791;28;20027;-72
2023/12/23 03:43:44;;;;;;;26.83;5.07;;;10.40;99.90;;;;;;5115274;28;20099;-72
2023/12/23 03:46:09;;;;;;;25.85;6.35;;;10.40;99.90;;;;;;5114505;28;20099;-73
2023/12/23 03:48:35;;;;;;;27.17;5.35;;;10.30;99.90;;;;;;5113062;28;20051;-72
2023/12/23 03:51:00;;;;;;;27.65;5.57;;;10.30;99.90;;;;;;5114745;28;20138;-71
2023/12/23 03:53:26;;;;;;;28.35;6.30;;;10.30;99.90;;;;;;5114967;28;20023;-72
2023/12/23 03:55:52;;;;;;;31.02;5.43;;;10.30;99.90;;;;;;5112205;28;20100;-72
2023/12/23 03:58:17;;;;;;;26.75;5.57;;;10.30;99.90;;;;;;5109255;28;20096;-72
2023/12/23 04:00:43;;;;;;;26.75;6.15;;;10.40;99.90;;;;;;5111493;28;20414;-72
2023/12/23 04:03:08;;;;;;;24.42;5.07;;;10.40;99.90;;;;;;5114739;28;20469;-72
2023/12/23 04:05:34;;;;;;;23.20;5.05;;;10.40;99.90;;;;;;5114519;28;20391;-72
2023/12/23 04:07:59;;;;;;;21.88;5.10;;;10.40;99.90;;;;;;5090438;28;20538;-72
2023/12/23 04:10:25;;;;;;;26.48;5.65;;;10.50;99.90;;;;;;5109779;28;20039;-72
2023/12/23 04:12:50;;;;;;;27.55;5.40;;;10.50;99.90;;;;;;5106964;28;20027;-72
2023/12/23 04:15:16;;;;;;;26.20;4.95;;;10.50;99.90;;;;;;5106340;28;20452;-72
2023/12/23 04:17:42;;;;;;;25.17;5.50;;;10.50;99.90;;;;;;5113445;28;20034;-72
2023/12/23 04:20:08;;;;;;;30.48;5.95;;;10.50;99.90;;;;;;5114616;28;20034;-71
2023/12/23 04:22:34;;;;;;;26.85;5.10;;;10.50;99.90;;;;;;5114797;28;20028;-72
2023/12/23 04:25:00;;;;;;;27.85;5.90;;;10.60;99.90;;;;;;5114261;28;20023;-71
2023/12/23 04:27:25;;;;;;;28.80;5.60;;;10.60;99.90;;;;;;5110884;28;20053;-72
2023/12/23 04:29:51;;;;;;;22.65;5.47;;;10.60;99.90;;;;;;5114091;28;20035;-72
2023/12/23 04:32:17;;;;;;;25.63;6.45;;;10.60;99.90;;;;;;5111256;28;20019;-72
2023/12/23 04:34:43;;;;;;;24.23;5.65;;;10.60;99.90;;;;;;5114204;28;20351;-72
2023/12/23 04:37:08;;;;;;;25.52;5.82;;;10.60;99.90;;;;;;5110845;28;20028;-72
2023/12/23 04:39:34;;;;;;;23.20;5.22;;;10.70;99.90;;;;;;5113840;28;20503;-72
2023/12/23 04:41:59;;;;;;;30.05;6.07;;;10.60;99.90;;;;;;5112651;28;20038;-72
2023/12/23 04:44:27;;;;;;;26.20;5.88;;;10.60;99.90;;;;;;5103719;28;20373;-72
2023/12/23 04:46:53;;;;;;;23.27;5.25;;;10.70;99.90;;;;;;5112340;28;20059;-72
2023/12/23 04:49:18;;;;;;;25.55;5.75;;;10.70;99.90;;;;;;5114055;28;20444;-72
2023/12/23 04:51:44;;;;;;;23.35;5.15;;;10.70;99.90;;;;;;5114034;28;20027;-72
2023/12/23 04:54:13;;;;;;;31.55;5.75;;;10.70;99.90;;;;;;5088274;28;20036;-71
2023/12/23 04:56:39;;;;;;;23.95;4.75;;;10.70;99.90;;;;;;5110096;28;20043;-72
2023/12/23 04:59:05;;;;;;;28.48;5.68;;;10.70;99.90;;;;;;5111982;28;20476;-71
2023/12/23 05:01:31;;;;;;;24.30;5.13;;;10.70;99.90;;;;;;5113983;28;20099;-72
2023/12/23 05:03:56;;;;;;;22.17;4.60;;;10.80;99.90;;;;;;5109479;28;20047;-71
2023/12/23 05:06:22;;;;;;;22.83;4.82;;;10.80;99.90;;;;;;5093862;28;20527;-72
2023/12/23 05:08:47;;;;;;;31.00;5.35;;;10.80;99.90;;;;;;5105435;28;20152;-72
2023/12/23 05:11:13;;;;;;;24.13;5.07;;;10.80;99.90;;;;;;5113373;28;20050;-72
2023/12/23 05:13:39;;;;;;;27.65;5.57;;;10.80;99.90;;;;;;5112942;28;20503;-72
2023/12/23 05:16:05;;;;;;;26.08;5.90;;;10.80;99.90;;;;;;5097188;28;20532;-72
2023/12/23 05:18:30;;;;;;;23.80;5.22;;;10.80;99.90;;;;;;5114070;28;20020;-71
2023/12/23 05:20:56;;;;;;;26.75;5.55;;;10.70;99.90;;;;;;5110333;28;20030;-71
2023/12/23 05:23:21;;;;;;;25.90;5.63;;;10.80;99.90;;;;;;5113427;28;20033;-72
2023/12/23 05:25:47;;;;;;;27.17;5.55;;;10.80;99.90;;;;;;5107127;28;20031;-71
2023/12/23 05:28:12;;;;;;;28.77;5.97;;;10.80;99.90;;;;;;5109875;28;20031;-71
2023/12/23 05:30:38;;;;;;;29.48;6.13;;;10.80;99.90;;;;;;5102191;28;20739;-71
2023/12/23 05:33:04;;;;;;;24.77;5.13;;;10.80;99.90;;;;;;5102442;28;20028;-71
2023/12/23 05:35:30;;;;;;;27.65;5.63;;;10.80;99.90;;;;;;5113495;28;20019;-71
2023/12/23 05:37:55;;;;;;;28.90;5.65;;;10.80;99.90;;;;;;5113323;28;20054;-72
2023/12/23 05:40:21;;;;;;;24.50;5.90;;;10.80;99.90;;;;;;5104162;28;20032;-72
2023/12/23 05:42:46;;;;;;;27.63;6.10;;;10.80;99.90;;;;;;5102797;28;20457;-71
2023/12/23 05:45:12;;;;;;;27.67;5.57;;;10.80;99.90;;;;;;5111912;28;20055;-72
2023/12/23 05:47:38;;;;;;;28.90;5.85;;;10.80;99.90;;;;;;5113248;28;20107;-72
2023/12/23 05:50:04;;;;;;;28.17;5.97;;;10.80;99.90;;;;;;5106392;28;20504;-72
2023/12/23 05:52:29;;;;;;;25.50;5.72;;;10.80;99.90;;;;;;5109532;28;20031;-72
2023/12/23 05:54:56;;;;;;;28.10;5.55;;;10.80;99.90;;;;;;5113337;28;20015;-71
2023/12/23 05:57:21;;;;;;;30.20;6.15;;;10.80;99.90;;;;;;5110665;28;20483;-72
2023/12/23 05:59:47;;;;;;;32.63;5.97;;;10.80;99.90;;;;;;5099484;28;20040;-71
2023/12/23 06:02:12;;;;;;;29.08;5.47;;;10.80;99.90;;;;;;5091479;28;20032;-72
2023/12/23 06:04:38;;;;;;;31.17;6.38;;;10.80;99.90;;;;;;5110301;28;20028;-72
2023/12/23 06:07:05;;;;;;;26.80;5.50;;;10.80;99.90;;;;;;5112912;28;20028;-72
2023/12/23 06:09:31;;;;;;;24.88;6.05;;;10.80;99.90;;;;;;5112181;28;20027;-72
2023/12/23 06:11:56;;;;;;;29.00;5.90;;;10.80;99.90;;;;;;5112751;28;20026;-73
2023/12/23 06:14:22;;;;;;;29.00;6.53;;;10.80;99.90;;;;;;5113137;28;20023;-72
2023/12/23 06:16:47;;;;;;;24.80;5.75;;;10.80;99.90;;;;;;5112551;28;20376;-72
2023/12/23 06:19:13;;;;;;;26.70;5.63;;;10.80;99.90;;;;;;5102443;28;20448;-72
2023/12/23 06:21:45;;;;;;;26.80;5.70;;;10.80;99.90;;;;;;5101507;28;20357;-72
2023/12/23 06:24:11;;;;;;;25.77;5.65;;;10.80;99.90;;;;;;5106421;28;20059;-72
2023/12/23 06:26:37;;;;;;;26.70;6.30;;;10.80;99.90;;;;;;5111945;28;20059;-72
2023/12/23 06:29:02;;;;;;;27.73;5.90;;;10.80;99.90;;;;;;5112839;28;20453;-72
2023/12/23 06:31:28;;;;;;;28.30;6.13;;;10.80;99.90;;;;;;5104839;28;20076;-72
2023/12/23 06:33:54;;;;;;;24.52;5.95;;;10.80;99.90;;;;;;5112718;28;20151;-72
2023/12/23 06:36:19;;;;;;;26.27;5.47;;;10.80;99.90;;;;;;5112424;28;20027;-72
2023/12/23 06:38:45;;;;;;;27.63;5.90;;;10.80;99.90;;;;;;5114830;28;20031;-73
2023/12/23 06:41:11;;;;;;;26.33;5.93;;;10.90;99.90;;;;;;5103956;28;20039;-73
2023/12/23 06:43:37;;;;;;;29.85;6.47;;;10.90;99.90;;;;;;5106284;28;20032;-72
2023/12/23 06:46:02;;;;;;;24.25;6.38;;;10.90;99.90;;;;;;5109214;28;20484;-72
2023/12/23 06:48:28;;;;;;;31.40;6.35;;;10.80;99.90;;;;;;5115918;28;20015;-72
2023/12/23 06:50:53;;;;;;;23.63;5.57;;;10.80;99.90;;;;;;5109254;28;20036;-73
2023/12/23 06:53:19;;;;;;;29.23;6.20;;;10.80;99.90;;;;;;5110837;28;20081;-72
2023/12/23 06:55:45;;;;;;;25.50;5.55;;;10.90;99.90;;;;;;5106623;28;20043;-72
2023/12/23 06:58:10;;;;;;;27.15;4.93;;;10.90;99.90;;;;;;5115123;28;20028;-72
2023/12/23 07:00:36;;;;;;;21.42;4.80;;;10.90;99.90;;;;;;5114729;28;20028;-73
2023/12/23 07:03:01;;;;;;;28.15;4.47;;;11.00;99.90;;;;;;5116235;28;20030;-72
2023/12/23 07:05:27;;;;;;;27.35;5.38;;;11.00;99.90;;;;;;5116247;28;20030;-71
2023/12/23 07:07:52;;;;;;;32.45;6.07;;;11.00;99.90;;;;;;5112403;28;20031;-73
2023/12/23 07:10:18;;;;;;;30.25;5.05;;;11.00;99.90;;;;;;5110995;28;20024;-73
2023/12/23 07:12:44;;;;;;;27.52;6.45;;;11.00;99.90;;;;;;5115852;28;20020;-73
2023/12/23 07:15:09;;;;;;;26.35;6.05;;;11.00;99.90;;;;;;5116003;28;20020;-73
2023/12/23 07:17:35;;;;;;;32.70;5.72;;;11.00;99.90;;;;;;5113408;28;20024;-72
2023/12/23 07:20:02;;;;;;;25.63;5.60;;;11.10;99.90;;;;;;5108276;28;20031;-72
2023/12/23 07:22:28;;;;;;;29.23;6.57;;;11.10;99.90;;;;;;5112734;28;20027;-73
2023/12/23 07:24:55;;;;;;;29.73;6.30;;;11.10;99.90;;;;;;5098877;28;20030;-72
2023/12/23 07:27:21;;;;;;;23.55;5.80;;;11.10;99.90;;;;;;5115415;28;20106;-72
2023/12/23 07:29:47;;;;;;;32.90;6.72;;;11.10;99.90;;;;;;5106098;28;20187;-72
2023/12/23 07:32:12;;;;;;;29.65;6.15;;;11.10;99.90;;;;;;5115629;28;20019;-72
2023/12/23 07:34:38;;;;;;;31.27;5.38;;;11.10;99.90;;;;;;5113830;28;20034;-73
2023/12/23 07:37:03;;;;;;;26.55;5.57;;;11.10;99.90;;;;;;5115707;28;20027;-73
2023/12/23 07:39:32;;;;;;;28.10;5.50;;;11.10;99.90;;;;;;5105603;28;20115;-74
2023/12/23 07:41:57;;;;;;;22.95;5.20;;;11.20;99.90;;;;;;5107759;28;20024;-73
2023/12/23 07:44:24;;;;;;;32.35;6.10;;;11.10;99.90;;;;;;5106929;28;20456;-73
2023/12/23 07:46:50;;;;;;;33.28;6.82;;;11.10;99.90;;;;;;5114725;28;20035;-72
2023/12/23 07:49:15;;;;;;;25.75;6.25;;;11.10;99.90;;;;;;5111489;28;20081;-73
2023/12/23 07:51:41;;;;;;;29.33;5.85;;;11.20;99.90;;;;;;5115206;28;20027;-72
2023/12/23 07:54:06;;;;;;;24.10;5.10;;;11.20;99.90;;;;;;5115347;28;20114;-72
2023/12/23 07:56:32;;;;;;;29.00;5.75;;;11.20;99.90;;;;;;5114917;28;20104;-72
2023/12/23 07:58:57;;;;;;;34.67;7.50;;;11.20;99.90;;;;;;5113601;28;20093;-72
2023/12/23 08:01:23;;;;;;;25.13;5.03;;;11.20;99.90;;;;;;5114748;28;20022;-71
2023/12/23 08:03:49;;;;;;;31.02;6.15;;;11.20;99.90;;;;;;5113653;28;20055;-72
2023/12/23 08:06:18;;;;;;;25.45;5.68;;;11.20;99.90;;;;;;5113799;28;20059;-71
2023/12/23 08:08:44;;;;;;;31.08;5.82;;;11.20;99.90;;;;;;5114916;28;20023;-73
2023/12/23 08:11:10;;;;;;;32.55;6.05;;;11.20;99.90;;;;;;5114756;28;20034;-73
2023/12/23 08:13:36;;;;;;;28.95;6.35;;;11.20;99.90;;;;;;5115017;28;20028;-72
2023/12/23 08:16:02;;;;;;;25.15;4.85;;;11.20;99.90;;;;;;5106293;28;20091;-72
2023/12/23 08:18:28;;;;;;;25.75;5.97;;;11.20;99.90;;;;;;5109845;28;20103;-72
2023/12/23 08:20:53;;;;;;;28.25;5.55;;;11.20;99.90;;;;;;5112348;28;20111;-72
2023/12/23 08:23:19;;;;;;;27.40;5.22;;;11.20;99.90;;;;;;5114166;28;20487;-73
2023/12/23 08:25:46;;;;;;;26.08;5.28;;;11.20;99.90;;;;;;5114360;28;20023;-72
2023/12/23 08:28:11;;;;;;;26.90;4.93;;;11.20;99.90;;;;;;5114314;28;20039;-73
2023/12/23 08:30:37;;;;;;;32.53;6.43;;;11.20;99.90;;;;;;5107269;28;20046;-73
2023/12/23 08:33:03;;;;;;;26.33;5.55;;;11.20;99.90;;;;;;5114443;28;20567;-72
2023/12/23 08:35:28;;;;;;;21.50;5.43;;;11.20;99.90;;;;;;5110671;28;20063;-72
2023/12/23 08:37:54;;;;;;;28.35;5.47;;;11.20;99.90;;;;;;5110343;28;20031;-73
2023/12/23 08:40:20;;;;;;;24.52;5.53;;;11.20;99.90;;;;;;5098011;28;20019;-73
2023/12/23 08:42:45;;;;;;;24.30;4.97;;;11.10;99.90;;;;;;5113147;28;20069;-72
2023/12/23 08:45:11;;;;;;;27.60;6.75;;;11.10;99.90;;;;;;5110892;28;20031;-72
2023/12/23 08:47:37;;;;;;;25.85;6.32;;;11.10;99.90;;;;;;5112979;28;20107;-72
2023/12/23 08:50:02;;;;;;;28.45;6.03;;;11.20;99.90;;;;;;5112216;28;20039;-73
2023/12/23 08:52:28;;;;;;;27.35;5.63;;;11.20;99.90;;;;;;5113086;28;20374;-74
2023/12/23 08:54:53;;;;;;;33.60;6.60;;;11.10;99.90;;;;;;5095504;28;20287;-73
2023/12/23 08:57:19;;;;;;;26.52;5.65;;;11.10;99.90;;;;;;5093131;28;20035;-71
2023/12/23 08:59:45;;;;;;;26.17;5.80;;;11.10;99.90;;;;;;5108515;28;20048;-73
2023/12/23 09:02:11;;;;;;;23.65;5.50;;;11.10;99.90;;;;;;5110502;28;20027;-72
2023/12/23 09:04:37;;;;;;;23.33;5.45;;;11.10;99.90;;;;;;5109400;28;20040;-72
2023/12/23 09:07:03;;;;;;;24.88;5.18;;;11.10;99.90;;;;;;5112294;28;20031;-72
2023/12/23 09:09:29;;;;;;;26.70;5.18;;;11.20;99.90;;;;;;5110283;28;20027;-72
2023/12/23 09:11:54;;;;;;;28.88;5.53;;;11.20;99.90;;;;;;5111267;28;20085;-72
2023/12/23 09:14:20;;;;;;;24.73;4.95;;;11.20;99.90;;;;;;5112120;28;20069;-72
2023/12/23 09:16:45;;;;;;;27.75;5.25;;;11.20;99.90;;;;;;5112696;28;20032;-72
2023/12/23 09:19:11;;;;;;;27.02;4.88;;;11.30;99.90;;;;;;5110831;28;20023;-73
2023/12/23 09:21:37;;;;;;;24.02;4.90;;;11.30;99.90;;;;;;5111890;28;20584;-73
2023/12/23 09:24:03;;;;;;;31.40;6.18;;;11.30;99.90;;;;;;5112690;28;20361;-72
2023/12/23 09:26:28;;;;;;;25.67;5.50;;;11.30;99.90;;;;;;5112257;28;20469;-72
2023/12/23 09:28:54;;;;;;;26.65;5.43;;;11.40;99.90;;;;;;5105192;28;20034;-72
2023/12/23 09:31:19;;;;;;;29.27;5.45;;;11.40;99.90;;;;;;5110103;28;20110;-72
2023/12/23 09:33:45;;;;;;;29.75;5.57;;;11.40;99.90;;;;;;5108629;28;20031;-73
2023/12/23 09:36:11;;;;;;;27.27;5.07;;;11.50;99.90;;;;;;5110931;28;20074;-72
2023/12/23 09:38:37;;;;;;;23.08;4.60;;;11.50;99.90;;;;;;5112298;28;20024;-72
2023/12/23 09:41:03;;;;;;;17.42;4.07;;;11.50;99.90;;;;;;5112433;28;20024;-73
2023/12/23 09:43:29;;;;;;;21.63;5.00;;;11.50;99.90;;;;;;5109860;28;20024;-72
2023/12/23 09:46:01;;;;;;;26.38;5.20;;;11.50;99.90;;;;;;5111976;28;20038;-72
2023/12/23 09:48:27;;;;;;;24.17;4.68;;;11.50;99.90;;;;;;5097440;28;20059;-72
2023/12/23 09:50:52;;;;;;;15.10;3.72;;;11.50;99.90;;;;;;5111743;28;20501;-72
2023/12/23 09:53:21;;;;;;;24.38;4.80;;;11.60;99.90;;;;;;5110936;28;20031;-72
2023/12/23 09:55:47;;;;;;;21.50;5.03;;;11.60;99.90;;;;;;5111005;28;20024;-72
2023/12/23 09:58:13;;;;;;;21.60;3.63;;;11.60;99.90;;;;;;5111899;28;20031;-73
2023/12/23 10:00:39;;;;;;;26.92;4.95;;;11.60;99.90;;;;;;5111340;28;20039;-73
2023/12/23 10:03:05;;;;;;;22.98;5.25;;;11.60;99.90;;;;;;5110213;28;20050;-73
2023/12/23 10:05:31;;;;;;;23.92;4.68;;;11.60;99.90;;;;;;5111834;28;20376;-72
2023/12/23 10:07:57;;;;;;;21.02;4.20;;;11.60;99.90;;;;;;5112786;28;20024;-73
2023/12/23 10:10:24;;;;;;;21.77;4.50;;;11.60;99.90;;;;;;5112583;28;20051;-72
2023/12/23 10:12:50;;;;;;;22.70;4.97;;;11.70;99.90;;;;;;5094712;28;20119;-73
2023/12/23 10:15:16;;;;;;;24.27;4.65;;;11.80;99.90;;;;;;5112292;28;20115;-73
2023/12/23 10:17:41;;;;;;;22.75;4.50;;;11.80;99.90;;;;;;5111470;28;20031;-72
2023/12/23 10:20:10;;;;;;;18.98;3.97;;;11.80;99.90;;;;;;5112335;28;20398;-72
2023/12/23 10:22:35;;;;;;;26.27;5.18;;;11.80;99.90;;;;;;5095384;28;20032;-74
2023/12/23 10:25:01;;;;;;;25.13;5.45;;;11.80;99.90;;;;;;5079973;28;20028;-74
2023/12/23 10:27:28;;;;;;;21.13;4.03;;;11.90;99.90;;;;;;5112176;28;20068;-74
2023/12/23 10:29:57;;;;;;;18.00;4.22;;;11.90;99.90;;;;;;5111449;28;20045;-73
2023/12/23 10:32:27;;;;;;;25.75;5.63;;;11.90;99.90;;;;;;5105196;28;20549;-74
2023/12/23 10:34:59;;;;;;;23.05;4.82;;;11.90;99.90;;;;;;5112083;28;20027;-74
2023/12/23 10:37:25;;;;;;;21.48;4.47;;;11.90;99.90;;;;;;5112342;28;20058;-74
2023/12/23 10:40:00;;;;;;;27.95;7.40;;;11.90;99.90;;;;;;5110203;28;20397;-74
2023/12/23 10:42:27;;;;;;;23.98;6.90;;;11.90;99.90;;;;;;5102231;28;20036;-74
2023/12/23 10:44:54;;;;;;;27.88;5.00;;;11.80;99.90;;;;;;5103378;28;20055;-72
2023/12/23 10:47:19;;;;;;;25.77;6.13;;;11.80;99.90;;;;;;5112190;28;20028;-73
2023/12/23 10:49:47;;;;;;;23.63;5.32;;;11.80;99.90;;;;;;5110902;28;20031;-73
2023/12/23 10:52:14;;;;;;;20.75;4.82;;;11.80;99.90;;;;;;5111283;28;21742;-74
2023/12/23 10:54:39;;;;;;;26.30;5.30;;;11.80;99.90;;;;;;5110079;28;20465;-73
2023/12/23 10:57:06;;;;;;;24.52;5.45;;;11.80;99.90;;;;;;5112271;28;20034;-73
2023/12/23 10:59:32;;;;;;;22.55;4.75;;;11.90;99.90;;;;;;5111738;28;20054;-73
2023/12/23 11:02:01;;;;;;;25.38;4.50;;;12.00;99.90;;;;;;5106659;28;20136;-74
2023/12/23 11:04:27;;;;;;;20.48;4.28;;;12.00;99.90;;;;;;5112097;28;20023;-73
2023/12/23 11:06:55;;;;;;;25.02;4.80;;;12.10;99.90;;;;;;5111834;28;20027;-72
2023/12/23 11:09:25;;;;;;;19.98;4.35;;;12.10;99.90;;;;;;5112019;28;20065;-73
2023/12/23 11:11:51;;;;;;;26.77;5.13;;;12.20;99.90;;;;;;5107951;28;20039;-72
2023/12/23 11:14:18;;;;;;;22.98;4.40;;;12.30;99.90;;;;;;5111601;28;20027;-73
2023/12/23 11:16:44;;;;;;;19.77;4.53;;;12.30;99.90;;;;;;5095527;28;20028;-74
2023/12/23 11:19:09;;;;;;;21.05;4.22;;;12.30;99.90;;;;;;5112165;28;20024;-73
2023/12/23 11:22:03;;;;;;;19.23;4.18;;;12.40;99.90;;;;;;5106526;28;20020;-75
2023/12/23 11:24:36;;;;;;;22.98;3.95;;;12.40;99.90;;;;;;5071277;28;20024;-74
2023/12/23 11:27:04;;;;;;;;;;;12.40;99.90;;;;;;5112403;28;20035;-73
2023/12/23 11:29:29;;;;;;;24.00;3.97;;;12.40;99.90;;;;;;5103828;28;19937;-73
2023/12/23 11:32:16;;;;;;;25.25;5.80;;;12.40;99.90;;;;;;5114430;28;20032;-72
2023/12/23 11:34:52;;;;;;;23.95;4.25;;;12.50;99.90;;;;;;5114480;28;20035;-74
2023/12/23 11:37:18;;;;;;;22.48;4.53;;;12.60;99.90;;;;;;5115362;28;20016;-73
2023/12/23 11:39:44;;;;;;;19.70;3.67;;;12.70;99.90;;;;;;5115279;28;20034;-72
2023/12/23 11:42:12;;;;;;;20.60;4.07;;;12.80;99.90;;;;;;5113344;28;20062;-72
2023/12/23 11:44:39;;;;;;;24.50;4.32;;;12.90;99.90;;;;;;5113254;28;20028;-74
2023/12/23 11:47:05;;;;;;;21.63;4.30;;;13.10;99.90;;;;;;5100160;28;20067;-73
2023/12/23 11:49:33;;;;;;;21.73;4.18;;;13.10;99.90;;;;;;5115023;28;20081;-72
2023/12/23 11:51:59;;;;;;;22.02;3.95;;;13.10;99.90;;;;;;5111391;28;20031;-74
2023/12/23 11:54:25;;;;;;;21.80;4.03;;;13.10;99.90;;;;;;5100056;28;20039;-73
2023/12/23 11:56:50;;;;;;;17.70;3.38;;;13.10;99.90;;;;;;5114138;28;20042;-72
2023/12/23 11:59:16;;;;;;;22.63;3.95;;;13.10;99.90;;;;;;5114451;28;20088;-74
2023/12/23 12:01:42;;;;;;;23.45;3.95;;;13.00;99.90;;;;;;5104995;28;20044;-73
2023/12/23 12:04:08;;;;;;;20.20;4.15;;;13.00;99.90;;;;;;5106183;28;20035;-72
2023/12/23 12:06:35;;;;;;;23.90;3.80;;;13.00;99.90;;;;;;5110126;28;20038;-73
2023/12/23 12:09:01;;;;;;;17.73;4.22;;;13.00;99.90;;;;;;5104525;28;20103;-73
2023/12/23 12:11:28;;;;;;;22.65;3.83;;;12.90;99.90;;;;;;5082996;28;20219;-72
2023/12/23 12:14:00;;;;;;;17.38;3.70;;;12.90;99.90;;;;;;5112871;28;20039;-72
2023/12/23 12:16:27;;;;;;;20.00;4.57;;;12.80;99.90;;;;;;5109875;28;20028;-72
2023/12/23 12:18:53;;;;;;;21.58;4.72;;;12.70;99.90;;;;;;5113735;28;20473;-73
2023/12/23 12:21:19;;;;;;;20.98;4.00;;;12.60;99.90;;;;;;5108303;28;20072;-73
2023/12/23 12:23:45;;;;;;;19.45;4.13;;;12.50;99.90;;;;;;5104946;28;20087;-73
2023/12/23 12:26:10;;;;;;;21.30;4.25;;;12.40;99.90;;;;;;5110138;28;20504;-73
2023/12/23 12:28:36;;;;;;;22.35;4.30;;;12.30;99.90;;;;;;5113043;28;20019;-73
2023/12/23 12:31:13;;;;;;;22.83;3.97;;;12.30;99.90;;;;;;5109416;28;20059;-72
2023/12/23 12:33:42;;;;;;;18.58;4.40;;;12.20;99.90;;;;;;5109899;28;20224;-72
2023/12/23 12:36:13;;;;;;;18.52;3.97;;;12.30;99.90;;;;;;5108019;28;20046;-73